Time;durP1;ratioP1;P1;durP2;ratioP2;P2;SDS_P1;SDS_P2;PMS_P1;PMS_P2;Temp;Humidity;BMP_temperature;BMP_pressure;BME280_temperature;BME280_humidity;BME280_pressure;Samples;Min_cycle;Max_cycle;Signal;HPM_P1;HPM_P2
2021/12/05 00:19:33;;;;;;;92.00;32.08;;;;;;;2.10;59.23;97006.81;5038892;28;20040;-71
2021/12/05 00:22:11;;;;;;;84.30;30.33;;;;;;;2.10;59.72;97014.94;5037867;28;20033;-71
2021/12/05 00:24:40;;;;;;;84.68;31.48;;;;;;;2.11;58.83;97005.72;5037213;28;20498;-70
2021/12/05 00:27:15;;;;;;;92.90;32.05;;;;;;;2.14;59.24;97002.47;5039509;28;20509;-70
2021/12/05 00:32:28;;;;;;;85.28;31.70;;;;;;;2.15;59.78;97014.91;5040104;28;20045;-71
2021/12/05 00:38:14;;;;;;;79.82;28.98;;;;;;;2.03;58.64;97028.75;5037412;28;20051;-71
2021/12/05 00:46:21;;;;;;;97.55;35.17;;;;;;;1.99;59.21;97033.09;5042447;28;20036;-70
2021/12/05 01:15:41;;;;;;;83.20;31.30;;;;;;;1.99;60.03;97055.53;5039580;28;20317;-72
2021/12/05 01:18:12;;;;;;;86.53;32.97;;;;;;;2.01;59.75;97053.34;5035632;28;20671;-72
2021/12/05 01:20:41;;;;;;;72.20;27.88;;;;;;;2.06;59.42;97050.63;5037481;28;20035;-71
2021/12/05 01:23:22;;;;;;;60.58;23.23;;;;;;;2.04;59.70;97055.50;5034646;28;20493;-71
2021/12/05 01:31:00;;;;;;;57.28;23.35;;;;;;;1.92;59.11;97053.13;5036496;28;20102;-72
2021/12/05 01:33:50;;;;;;;52.28;21.67;;;;;;;1.93;58.06;97045.81;5035446;28;20052;-72
2021/12/05 01:53:12;;;;;;;44.30;17.25;;;;;;;2.22;58.39;97021.63;5036964;28;20071;-72
2021/12/05 02:16:32;;;;;;;51.85;20.25;;;;;;;2.05;57.97;97031.97;5024529;28;20108;-71
2021/12/05 02:43:03;;;;;;;29.80;13.98;;;;;;;1.38;60.26;97021.31;5037015;28;20077;-71
2021/12/05 02:45:29;;;;;;;27.33;12.15;;;;;;;1.19;60.56;97019.19;5033840;28;20029;-71
2021/12/05 02:47:55;;;;;;;22.88;11.30;;;;;;;1.12;61.20;97021.34;5033505;28;20447;-72
2021/12/05 02:50:24;;;;;;;30.95;14.23;;;;;;;1.01;61.15;97023.22;5037077;28;20470;-71
2021/12/05 02:52:50;;;;;;;24.05;12.50;;;;;;;0.94;62.07;97022.69;5057776;28;20037;-71
2021/12/05 02:55:26;;;;;;;26.30;12.52;;;;;;;0.88;61.64;97013.75;5036723;28;20056;-70
2021/12/05 02:58:02;;;;;;;27.83;12.82;;;;;;;0.86;61.96;97014.03;5034280;28;20060;-71
2021/12/05 03:00:40;;;;;;;30.48;15.10;;;;;;;0.81;62.58;97014.03;5036122;28;20033;-71
2021/12/05 03:03:17;;;;;;;31.90;15.20;;;;;;;0.84;62.51;97009.97;5057113;28;20078;-71
2021/12/05 03:05:45;;;;;;;33.35;13.73;;;;;;;0.88;62.74;97011.06;5037679;28;20048;-71
2021/12/05 03:08:11;;;;;;;29.00;14.68;;;;;;;0.95;62.86;97010.81;5034369;28;20043;-71
2021/12/05 03:10:36;;;;;;;30.55;14.82;;;;;;;0.98;63.41;97011.06;5037568;28;20033;-70
2021/12/05 03:13:02;;;;;;;27.90;13.45;;;;;;;0.97;63.14;97008.66;5032599;28;20029;-69
2021/12/05 03:15:28;;;;;;;34.50;15.85;;;;;;;0.94;63.25;97006.50;5032883;28;20060;-69
2021/12/05 03:17:54;;;;;;;34.53;14.77;;;;;;;0.96;63.13;97004.34;5034772;28;20041;-68
2021/12/05 03:20:20;;;;;;;39.33;16.13;;;;;;;0.99;63.56;97009.19;5035380;28;20026;-72
2021/12/05 03:22:46;;;;;;;39.05;17.15;;;;;;;1.02;63.71;96998.66;5035852;28;20108;-71
2021/12/05 03:25:13;;;;;;;35.88;16.70;;;;;;;1.06;63.98;96996.22;5038661;28;20120;-70
2021/12/05 03:27:41;;;;;;;31.40;14.82;;;;;;;1.04;64.17;97001.91;5032430;28;20115;-70
2021/12/05 03:30:09;;;;;;;28.67;14.43;;;;;;;1.01;63.99;96997.03;5033989;28;20028;-70
2021/12/05 03:32:36;;;;;;;35.13;15.88;;;;;;;0.99;63.57;96998.41;5037102;28;20057;-70
2021/12/05 03:35:03;;;;;;;34.53;15.25;;;;;;;1.00;63.99;96998.13;5036325;28;20055;-71
2021/12/05 03:37:29;;;;;;;31.90;13.85;;;;;;;1.01;64.08;96993.53;5035421;28;20089;-70
2021/12/05 03:39:54;;;;;;;32.58;14.30;;;;;;;0.87;64.11;96995.94;5037167;28;20061;-71
2021/12/05 03:42:20;;;;;;;29.92;13.88;;;;;;;0.80;64.79;96995.41;5036879;28;20033;-70
2021/12/05 03:44:45;;;;;;;32.38;14.77;;;;;;;0.78;64.64;97009.16;5037285;28;20063;-71
2021/12/05 03:47:11;;;;;;;34.60;16.13;;;;;;;0.81;65.11;97005.13;5035493;28;20030;-71
2021/12/05 03:49:37;;;;;;;31.27;14.52;;;;;;;0.86;65.16;97010.50;5034914;28;20030;-70
2021/12/05 03:52:08;;;;;;;32.95;14.90;;;;;;;0.94;65.37;97009.19;5034708;28;20035;-70
2021/12/05 03:54:33;;;;;;;32.15;15.68;;;;;;;0.97;65.65;97016.75;5036277;28;20028;-70
2021/12/05 03:57:00;;;;;;;32.00;15.40;;;;;;;0.95;64.90;97008.13;5033059;28;20013;-71
2021/12/05 03:59:28;;;;;;;36.05;17.08;;;;;;;0.99;65.56;97012.69;5036303;28;20017;-70
2021/12/05 04:01:57;;;;;;;34.70;15.07;;;;;;;1.02;65.66;97016.72;5035363;28;20029;-70
2021/12/05 04:04:23;;;;;;;32.67;14.80;;;;;;;0.99;65.54;97007.28;5035098;28;20405;-70
2021/12/05 04:06:49;;;;;;;27.02;12.60;;;;;;;0.99;65.38;97011.91;5032785;28;20041;-70
2021/12/05 04:09:16;;;;;;;27.35;13.38;;;;;;;0.96;65.55;97009.72;5034314;28;20042;-70
2021/12/05 04:11:55;;;;;;;29.10;13.27;;;;;;;0.97;65.61;97011.34;5033845;28;20758;-70
2021/12/05 04:14:20;;;;;;;25.80;11.40;;;;;;;0.91;65.76;97023.22;5037923;28;20124;-70
2021/12/05 04:16:46;;;;;;;28.95;13.18;;;;;;;0.86;65.97;97021.31;5035524;28;20151;-70
2021/12/05 04:19:11;;;;;;;29.02;13.85;;;;;;;0.84;65.78;97021.59;5032323;28;20057;-70
2021/12/05 04:21:38;;;;;;;25.98;13.20;;;;;;;0.83;66.01;97016.44;5036060;28;20036;-70
2021/12/05 04:24:07;;;;;;;21.60;11.23;;;;;;;0.80;66.16;97020.50;5034063;28;20025;-70
2021/12/05 04:26:33;;;;;;;22.80;10.80;;;;;;;0.72;66.31;97019.16;5035711;28;20051;-71
2021/12/05 04:28:59;;;;;;;22.02;11.52;;;;;;;0.67;66.16;97019.16;5032418;28;20028;-70
2021/12/05 04:31:24;;;;;;;27.80;12.98;;;;;;;0.63;66.40;97028.03;5033691;28;20025;-70
2021/12/05 04:33:51;;;;;;;31.15;14.23;;;;;;;0.62;66.58;97027.22;5038172;28;20050;-70
2021/12/05 04:36:17;;;;;;;27.10;13.93;;;;;;;0.66;66.44;97022.91;5036908;28;20036;-70
2021/12/05 04:38:43;;;;;;;29.60;14.00;;;;;;;0.69;66.79;97025.09;5030915;28;20497;-70
2021/12/05 04:41:08;;;;;;;28.70;15.32;;;;;;;0.71;67.15;97025.63;5035182;28;20091;-70
2021/12/05 04:43:38;;;;;;;39.45;21.20;;;;;;;0.77;67.10;97023.75;5032616;28;20030;-70
2021/12/05 04:46:10;;;;;;;48.83;26.83;;;;;;;0.85;67.58;97031.31;5033060;28;20397;-70
2021/12/05 04:48:37;;;;;;;62.58;27.52;;;;;;;0.91;67.42;97032.13;5033082;28;20084;-70
2021/12/05 04:51:03;;;;;;;76.30;30.58;;;;;;;0.97;67.77;97025.66;5037189;28;20031;-70
2021/12/05 04:53:29;;;;;;;79.07;31.20;;;;;;;0.99;67.30;97028.09;5039841;28;20033;-70
2021/12/05 04:55:56;;;;;;;77.15;28.90;;;;;;;1.03;67.27;97026.44;5034984;28;20040;-70
2021/12/05 04:58:22;;;;;;;67.38;26.52;;;;;;;0.96;67.66;97034.03;5035586;28;20565;-71
2021/12/05 05:00:47;;;;;;;62.83;25.08;;;;;;;0.90;67.54;97035.91;5038550;28;20115;-70
2021/12/05 05:03:14;;;;;;;54.38;22.75;;;;;;;0.88;68.30;97036.19;5039195;28;20041;-70
2021/12/05 05:05:46;;;;;;;48.55;20.77;;;;;;;0.93;67.96;97031.88;5036425;28;20056;-71
2021/12/05 05:08:12;;;;;;;36.58;16.88;;;;;;;0.96;67.73;97040.22;5034991;28;20040;-69
2021/12/05 05:10:38;;;;;;;29.02;13.95;;;;;;;0.97;67.78;97049.94;5037828;28;20029;-70
2021/12/05 05:13:04;;;;;;;24.15;13.57;;;;;;;0.97;68.11;97041.06;5036741;28;20025;-70
2021/12/05 05:15:31;;;;;;;25.77;13.27;;;;;;;0.98;67.99;97039.97;5036119;28;20128;-70
2021/12/05 05:17:58;;;;;;;27.80;14.35;;;;;;;0.98;68.51;97042.66;5039164;28;20021;-70
2021/12/05 05:20:34;;;;;;;26.30;13.70;;;;;;;0.99;68.81;97047.78;5036861;28;20019;-70
2021/12/05 05:42:38;;;;;;;51.75;20.27;;;;;;;1.07;68.66;97067.25;5043166;28;20467;-71
2021/12/05 05:48:01;;;;;;;34.10;16.77;;;;;;;1.01;68.63;97075.31;5032707;28;20049;-71
2021/12/05 05:50:28;;;;;;;35.95;17.45;;;;;;;1.00;69.22;97078.31;5036566;28;20037;-71
2021/12/05 05:52:53;;;;;;;40.38;17.38;;;;;;;1.02;68.87;97078.81;5036682;28;20396;-70
2021/12/05 05:55:19;;;;;;;46.85;20.05;;;;;;;1.07;69.57;97078.84;5036892;28;20021;-71
2021/12/05 06:00:39;;;;;;;36.33;17.67;;;;;;;1.11;69.29;97082.63;5035794;28;20025;-70
2021/12/05 06:05:45;;;;;;;28.65;15.57;;;;;;;1.19;69.11;97092.91;5036452;28;20029;-70
2021/12/05 06:08:11;;;;;;;31.67;15.98;;;;;;;1.21;69.57;97098.03;5037999;28;20494;-70
2021/12/05 06:10:36;;;;;;;33.67;18.58;;;;;;;1.16;69.45;97092.63;5035744;28;20032;-71
2021/12/05 06:13:02;;;;;;;38.45;17.90;;;;;;;1.17;69.85;97095.06;5036076;28;20032;-70
2021/12/05 06:15:29;;;;;;;31.52;16.08;;;;;;;1.19;69.56;97098.31;5034885;28;20064;-71
2021/12/05 06:17:55;;;;;;;47.05;21.85;;;;;;;1.18;69.88;97090.47;5037552;28;20029;-71
2021/12/05 06:20:26;;;;;;;41.60;21.98;;;;;;;1.24;69.58;97102.09;5036765;28;20036;-71
2021/12/05 06:22:53;;;;;;;46.58;26.17;;;;;;;1.29;69.46;97104.78;5037034;28;20124;-70
2021/12/05 06:25:23;;;;;;;36.88;19.55;;;;;;;1.27;70.09;97099.66;5038266;28;20028;-70
2021/12/05 06:27:51;;;;;;;36.83;19.63;;;;;;;1.30;69.79;97107.22;5037892;28;20036;-71
2021/12/05 06:30:32;;;;;;;37.28;18.13;;;;;;;1.33;69.91;97100.47;5036219;28;20082;-71
2021/12/05 06:48:48;;;;;;;51.15;21.15;;;;;;;0.85;70.73;97124.97;5034217;28;20444;-71
2021/12/05 06:51:17;;;;;;;89.90;31.42;;;;;;;0.76;70.90;97126.56;5034630;28;20033;-71
2021/12/05 06:53:42;;;;;;;80.13;31.85;;;;;;;0.70;71.33;97139.22;5034262;28;20485;-71
2021/12/05 06:56:08;;;;;;;58.42;22.33;;;;;;;0.67;72.12;97137.03;5035510;28;20059;-71
2021/12/05 06:58:35;;;;;;;37.08;17.40;;;;;;;0.61;72.19;97143.53;5035910;28;20079;-71
2021/12/05 07:01:05;;;;;;;52.65;23.98;;;;;;;0.51;72.69;97142.41;5035233;28;20044;-71
2021/12/05 07:03:32;;;;;;;37.10;19.65;;;;;;;0.45;72.55;97146.16;5036132;28;20352;-71
2021/12/05 07:06:02;;;;;;;36.08;19.52;;;;;;;0.39;74.60;97147.19;5037868;28;20401;-71
2021/12/05 07:08:32;;;;;;;30.15;16.33;;;;;;;0.36;73.83;97156.63;5035375;28;20381;-71
2021/12/05 07:11:04;;;;;;;;;;;;;;;0.32;75.13;97154.69;5037478;28;20033;-71
2021/12/05 07:17:04;;;;;;;67.63;35.92;;;;;;;0.21;75.73;97161.94;5035438;28;20474;-71
2021/12/05 07:22:14;;;;;;;36.95;18.60;;;;;;;0.18;77.37;97159.75;5032481;28;20048;-73
2021/12/05 07:24:51;;;;;;;32.90;16.52;;;;;;;0.16;76.27;97170.81;5035730;28;20481;-73
2021/12/05 07:41:19;;;;;;;27.60;15.13;;;;;;;0.36;77.19;97161.19;5030457;28;20044;-72
2021/12/05 07:43:45;;;;;;;28.13;16.52;;;;;;;0.39;77.40;97174.16;5033797;28;20037;-73
2021/12/05 07:46:11;;;;;;;27.50;15.48;;;;;;;0.40;76.98;97173.91;5033939;28;20072;-71
2021/12/05 07:48:40;;;;;;;25.88;13.75;;;;;;;0.43;77.05;97167.19;5033668;28;20029;-71
2021/12/05 07:54:10;;;;;;;26.75;15.60;;;;;;;0.45;77.20;97167.72;5033469;28;20482;-71
2021/12/05 07:59:15;;;;;;;21.65;13.63;;;;;;;0.51;77.43;97155.88;5029297;28;20082;-71
2021/12/05 08:15:29;;;;;;;25.88;15.50;;;;;;;0.61;77.80;97175.91;5037998;28;20076;-72
2021/12/05 08:17:57;;;;;;;27.65;17.33;;;;;;;0.62;77.66;97180.19;5034592;28;20029;-72
2021/12/05 08:20:30;;;;;;;28.80;16.95;;;;;;;0.64;77.99;97181.56;5033026;28;20060;-72
2021/12/05 08:22:56;;;;;;;22.83;12.43;;;;;;;0.67;77.33;97185.63;5057735;28;20112;-72
2021/12/05 08:25:26;;;;;;;21.00;13.00;;;;;;;0.69;77.77;97189.69;5036593;28;20563;-71
2021/12/05 08:27:57;;;;;;;24.55;16.13;;;;;;;0.70;77.38;97190.50;5033329;28;20115;-72
2021/12/05 08:30:36;;;;;;;26.95;15.93;;;;;;;0.76;77.36;97185.94;5035756;28;20124;-72
2021/12/05 08:36:31;;;;;;;28.38;16.88;;;;;;;0.78;77.80;97186.50;5038147;28;20306;-72
2021/12/05 09:28:24;;;;;;;43.00;27.95;;;;;;;1.55;76.96;97229.09;5035421;28;20042;-69
2021/12/05 10:11:47;;;;;;;41.08;20.40;;;;;;;1.38;76.75;97251.78;5036292;28;20037;-71
2021/12/05 10:36:17;;;;;;;42.10;21.48;;;;;;;1.41;76.85;97256.66;5032276;28;20052;-72
2021/12/05 10:38:51;;;;;;;42.80;21.92;;;;;;;1.43;77.85;97256.38;5036335;28;20051;-72
2021/12/05 10:41:46;;;;;;;39.10;21.30;;;;;;;1.43;77.08;97240.94;5032516;28;20033;-72
2021/12/05 10:44:12;;;;;;;42.95;22.02;;;;;;;1.45;77.33;97257.72;5038015;28;20120;-72
2021/12/05 10:46:40;;;;;;;41.97;21.73;;;;;;;1.43;77.25;97253.66;5030581;28;20415;-73
2021/12/05 10:49:15;;;;;;;42.03;24.08;;;;;;;1.42;77.24;97252.88;5034882;28;20462;-73
2021/12/05 10:51:57;;;;;;;41.22;23.55;;;;;;;1.45;78.04;97255.00;5032104;28;20297;-72
2021/12/05 10:54:26;;;;;;;40.13;22.02;;;;;;;1.44;77.65;97266.91;5036162;28;20037;-73
2021/12/05 10:56:56;;;;;;;38.80;21.10;;;;;;;1.42;78.05;97273.66;5057940;28;20055;-73
2021/12/05 10:59:35;;;;;;;39.08;22.73;;;;;;;1.39;77.95;97266.91;5038142;28;20102;-73
2021/12/05 11:02:26;;;;;;;39.97;20.30;;;;;;;1.38;78.61;97277.97;5034208;28;20091;-73
2021/12/05 11:04:52;;;;;;;35.13;20.23;;;;;;;1.37;77.63;97279.88;5030233;28;20098;-72
2021/12/05 11:07:21;;;;;;;42.92;23.25;;;;;;;1.38;78.08;97276.09;5036634;28;20057;-72
2021/12/05 11:09:56;;;;;;;192.32;87.82;;;;;;;1.40;78.03;97279.34;5037660;28;20029;-72
2021/12/05 11:12:25;;;;;;;127.00;45.80;;;;;;;1.42;77.70;97289.88;5033679;28;20036;-73
2021/12/05 11:14:54;;;;;;;57.58;26.10;;;;;;;1.44;78.13;97296.63;5031645;28;20124;-73
2021/12/05 11:17:41;;;;;;;66.57;26.45;;;;;;;1.48;77.80;97288.81;5032413;28;20037;-73
2021/12/05 11:20:09;;;;;;;116.72;37.33;;;;;;;1.47;77.41;97298.78;5036826;28;20504;-72
2021/12/05 11:22:41;;;;;;;157.73;48.95;;;;;;;1.48;78.06;97296.91;5036194;28;20126;-72
2021/12/05 11:25:12;;;;;;;78.13;31.00;;;;;;;1.49;77.61;97301.25;5034580;28;20052;-72
2021/12/05 11:27:42;;;;;;;52.92;28.00;;;;;;;1.49;78.19;97303.94;5036071;28;20103;-72
2021/12/05 11:30:13;;;;;;;38.00;20.42;;;;;;;1.47;78.28;97298.78;5037801;28;20036;-72
2021/12/05 11:32:53;;;;;;;48.83;23.17;;;;;;;1.46;78.25;97299.06;5033035;28;20084;-73
2021/12/05 11:35:37;;;;;;;36.53;20.98;;;;;;;1.47;77.84;97296.09;5034654;28;20091;-73
2021/12/05 11:38:21;;;;;;;38.08;21.15;;;;;;;1.49;78.27;97304.75;5032650;28;20036;-72
2021/12/05 11:41:08;;;;;;;38.65;20.05;;;;;;;1.53;77.97;97301.50;5059128;28;20041;-72
2021/12/05 11:43:51;;;;;;;50.60;23.10;;;;;;;1.54;77.61;97308.53;5030836;28;20108;-71
2021/12/05 11:46:32;;;;;;;39.28;20.77;;;;;;;1.54;78.00;97303.97;5028193;28;20393;-72
2021/12/05 11:49:13;;;;;;;37.03;20.75;;;;;;;1.53;78.76;97304.22;5032313;28;20108;-72
2021/12/05 11:51:41;;;;;;;36.95;21.15;;;;;;;1.52;78.57;97297.19;5032486;28;20041;-72
2021/12/05 11:54:13;;;;;;;33.20;18.75;;;;;;;1.52;78.21;97297.19;5034308;28;20081;-71
2021/12/05 11:56:55;;;;;;;43.03;22.90;;;;;;;1.57;78.47;97297.19;5034365;28;20033;-71
2021/12/05 11:59:20;;;;;;;46.17;20.73;;;;;;;1.66;77.93;97289.38;5036714;28;20041;-72
2021/12/05 12:02:10;;;;;;;50.10;23.80;;;;;;;1.71;77.97;97298.31;5057901;28;20044;-72
2021/12/05 12:04:41;;;;;;;41.65;21.42;;;;;;;1.72;77.85;97299.13;5039644;28;20049;-71
2021/12/05 12:07:15;;;;;;;50.78;22.75;;;;;;;1.73;78.16;97295.34;5037214;28;20025;-71
2021/12/05 12:09:42;;;;;;;59.15;25.23;;;;;;;1.77;78.48;97291.03;5039082;28;20523;-72
2021/12/05 12:12:10;;;;;;;37.33;19.88;;;;;;;1.78;78.42;97293.47;5039213;28;20033;-71
2021/12/05 12:14:36;;;;;;;33.15;17.42;;;;;;;1.82;78.33;97276.72;5042805;28;20060;-71
2021/12/05 12:17:09;;;;;;;50.63;22.70;;;;;;;1.82;78.17;97296.44;5039424;28;20049;-71
2021/12/05 12:19:36;;;;;;;49.13;21.20;;;;;;;1.84;78.53;97288.88;5037080;28;20120;-70
2021/12/05 12:22:04;;;;;;;42.75;19.52;;;;;;;1.88;78.43;97286.44;5035951;28;20028;-71
2021/12/05 12:24:31;;;;;;;36.08;17.42;;;;;;;1.93;78.45;97275.63;5041497;28;20111;-71
2021/12/05 12:26:57;;;;;;;39.03;17.98;;;;;;;1.98;78.05;97278.34;5037073;28;20044;-71
2021/12/05 12:29:26;;;;;;;43.53;20.85;;;;;;;2.01;77.75;97283.22;5037111;28;20110;-71
2021/12/05 12:31:54;;;;;;;51.20;22.77;;;;;;;2.12;78.29;97288.63;5038957;28;20045;-72
2021/12/05 12:34:21;;;;;;;60.20;27.65;;;;;;;2.16;78.26;97287.03;5038168;28;20076;-72
2021/12/05 12:36:50;;;;;;;55.65;25.45;;;;;;;2.20;78.19;97290.81;5040438;28;20040;-71
2021/12/05 12:39:15;;;;;;;82.20;32.33;;;;;;;2.24;77.55;97283.78;5039298;28;20064;-72
2021/12/05 12:41:41;;;;;;;56.80;26.73;;;;;;;2.27;77.67;97277.00;5039496;28;20083;-71
2021/12/05 12:44:07;;;;;;;55.63;27.27;;;;;;;2.27;77.09;97277.00;5038072;28;20037;-72
2021/12/05 12:46:50;;;;;;;38.60;20.90;;;;;;;2.24;77.67;97283.78;5037821;28;20055;-71
2021/12/05 12:49:15;;;;;;;37.10;20.42;;;;;;;2.27;77.11;97288.63;5035547;28;20033;-72
2021/12/05 12:51:43;;;;;;;33.88;19.08;;;;;;;2.32;77.46;97285.91;5039597;28;20105;-71
2021/12/05 12:54:14;;;;;;;34.22;18.08;;;;;;;2.37;77.24;97277.00;5040271;28;20025;-72
2021/12/05 12:56:42;;;;;;;37.75;21.27;;;;;;;2.35;77.77;97271.84;5037376;28;20028;-72
2021/12/05 12:59:12;;;;;;;38.38;21.33;;;;;;;2.31;77.64;97273.47;5036763;28;20029;-71
2021/12/05 13:10:08;;;;;;;36.83;19.83;;;;;;;2.20;76.62;97283.50;5038268;28;20046;-72
2021/12/05 13:12:40;;;;;;;44.05;22.45;;;;;;;2.16;77.19;97290.53;5033261;28;20061;-71
2021/12/05 13:15:07;;;;;;;38.72;20.38;;;;;;;2.17;77.32;97285.94;5034080;28;20037;-71
2021/12/05 13:17:58;;;;;;;47.25;24.40;;;;;;;2.16;76.78;97289.72;5034500;28;20364;-70
2021/12/05 13:20:50;;;;;;;44.33;23.92;;;;;;;2.15;77.41;97285.41;5040808;28;20039;-66
2021/12/05 13:23:21;;;;;;;39.50;20.65;;;;;;;2.12;76.92;97285.94;5037213;28;20052;-66
2021/12/05 13:26:11;;;;;;;42.83;22.45;;;;;;;2.07;77.49;97287.56;5038331;28;20476;-66
2021/12/05 13:28:44;;;;;;;48.80;24.38;;;;;;;2.06;77.16;97283.22;5034509;28;20286;-66
2021/12/05 13:31:32;;;;;;;39.40;21.92;;;;;;;2.06;77.07;97288.63;5032063;28;20394;-67
2021/12/05 13:34:51;;;;;;;38.05;19.83;;;;;;;2.04;77.27;97290.78;5040065;28;20592;-66
2021/12/05 13:37:29;;;;;;;44.30;22.70;;;;;;;2.03;77.33;97289.16;5021923;28;20045;-66
2021/12/05 13:40:12;;;;;;;52.08;25.45;;;;;;;2.03;77.55;97294.59;5037209;28;20592;-66
2021/12/05 13:43:06;;;;;;;54.28;27.65;;;;;;;2.04;77.31;97293.50;5041167;28;20078;-66
2021/12/05 13:45:42;;;;;;;46.63;24.13;;;;;;;2.09;77.37;97300.78;5035992;28;20104;-66
2021/12/05 13:48:13;;;;;;;50.28;26.38;;;;;;;2.17;77.27;97294.06;5033904;28;20025;-67
2021/12/05 13:51:04;;;;;;;75.32;33.65;;;;;;;2.21;77.11;97290.53;5036247;28;20444;-66
2021/12/05 13:53:37;;;;;;;58.80;27.67;;;;;;;2.24;76.56;97297.31;5033747;28;20037;-67
2021/12/05 13:56:09;;;;;;;132.88;51.83;;;;;;;2.22;76.74;97292.16;5033314;28;20056;-67
2021/12/05 13:58:46;;;;;;;191.63;70.72;;;;;;;2.22;76.66;97292.16;5033158;28;20095;-67
2021/12/05 14:01:25;;;;;;;196.13;69.53;;;;;;;2.30;77.24;97304.31;5037797;28;20590;-66
2021/12/05 14:04:10;;;;;;;125.30;50.23;;;;;;;2.38;76.57;97306.47;5036592;28;20131;-66
2021/12/05 14:07:01;;;;;;;75.45;33.90;;;;;;;2.48;76.70;97302.16;5033759;28;20306;-66
2021/12/05 14:09:30;;;;;;;57.72;30.10;;;;;;;2.58;77.44;97298.63;5035397;28;20041;-67
2021/12/05 14:12:31;;;;;;;54.45;27.02;;;;;;;2.62;76.91;97305.13;5061418;28;20442;-66
2021/12/05 14:15:04;;;;;;;61.90;30.30;;;;;;;2.69;76.75;97302.94;5036859;28;20029;-66
2021/12/05 14:17:34;;;;;;;60.97;30.65;;;;;;;2.71;76.76;97308.91;5033468;28;20465;-66
2021/12/05 14:20:11;;;;;;;85.20;40.10;;;;;;;2.70;77.10;97311.88;5037933;28;20025;-66
2021/12/05 14:22:38;;;;;;;100.47;54.22;;;;;;;2.65;76.60;97313.50;5035144;28;20029;-66
2021/12/05 14:25:16;;;;;;;80.70;45.03;;;;;;;2.64;76.51;97316.47;5025263;28;20037;-65
2021/12/05 14:27:50;;;;;;;128.52;53.70;;;;;;;2.59;76.61;97321.91;5019546;28;20032;-65
2021/12/05 14:30:19;;;;;;;129.35;57.15;;;;;;;2.49;76.51;97328.13;5031814;28;20079;-65
2021/12/05 14:32:46;;;;;;;130.15;59.97;;;;;;;2.41;76.19;97340.34;5036229;28;20037;-66
2021/12/05 14:35:15;;;;;;;133.77;65.72;;;;;;;2.33;76.38;97344.38;5035189;28;20033;-66
2021/12/05 14:37:43;;;;;;;119.82;56.20;;;;;;;2.26;76.47;97338.41;5035329;28;20033;-65
2021/12/05 14:40:12;;;;;;;120.13;54.70;;;;;;;2.20;76.19;97343.00;5038348;28;20048;-65
2021/12/05 14:42:40;;;;;;;123.13;52.92;;;;;;;2.14;76.18;97346.00;5033043;28;20136;-65
2021/12/05 14:45:11;;;;;;;98.90;44.47;;;;;;;2.11;76.27;97347.31;5033470;28;20025;-65
2021/12/05 14:47:37;;;;;;;73.95;33.10;;;;;;;2.04;76.12;97344.06;5033790;28;20017;-65
2021/12/05 14:50:11;;;;;;;88.90;42.33;;;;;;;2.00;76.10;97359.22;5030258;28;20067;-65
2021/12/05 14:52:40;;;;;;;106.50;54.95;;;;;;;1.96;76.15;97366.25;5038918;28;20021;-65
2021/12/05 14:55:10;;;;;;;103.25;48.00;;;;;;;1.91;77.04;97370.56;5037079;28;20025;-65
2021/12/05 14:57:55;;;;;;;94.10;44.70;;;;;;;1.87;76.73;97371.34;5056256;28;20072;-65
2021/12/05 15:00:32;;;;;;;136.38;52.63;;;;;;;1.79;76.42;97364.56;5035727;28;20029;-67
2021/12/05 15:03:14;;;;;;;166.45;59.00;;;;;;;1.78;76.44;97374.59;5035388;28;20035;-65
2021/12/05 15:05:44;;;;;;;104.43;42.92;;;;;;;1.83;76.79;97386.50;5035516;28;20017;-65
2021/12/05 15:08:13;;;;;;;78.82;35.13;;;;;;;1.88;76.85;97386.47;5034576;28;20025;-65
2021/12/05 15:10:41;;;;;;;110.65;44.10;;;;;;;1.89;76.76;97383.53;5038337;28;20044;-64
2021/12/05 15:13:08;;;;;;;106.43;42.33;;;;;;;1.92;77.27;97384.88;5033737;28;20029;-64
2021/12/05 15:15:35;;;;;;;106.60;43.33;;;;;;;1.89;77.19;97377.28;5034308;28;20038;-65
2021/12/05 15:18:01;;;;;;;99.95;40.50;;;;;;;1.87;77.15;97372.16;5033046;28;20096;-65
2021/12/05 15:20:32;;;;;;;105.97;44.20;;;;;;;1.88;77.17;97375.66;5035275;28;20014;-65
2021/12/05 15:23:04;;;;;;;103.38;44.42;;;;;;;1.95;76.86;97367.31;5034619;28;20525;-67
2021/12/05 15:25:31;;;;;;;133.90;53.85;;;;;;;2.00;77.26;97372.75;5038870;28;20057;-65
2021/12/05 15:27:58;;;;;;;94.88;42.63;;;;;;;2.10;76.70;97369.25;5034180;28;20355;-65
2021/12/05 15:30:30;;;;;;;93.75;42.35;;;;;;;2.18;77.52;97371.44;5034683;28;20045;-65
2021/12/05 15:33:01;;;;;;;106.57;45.83;;;;;;;2.18;76.68;97368.72;5031692;28;20531;-65
2021/12/05 15:35:27;;;;;;;97.50;41.10;;;;;;;2.15;76.41;97359.22;5038653;28;20541;-65
2021/12/05 15:38:08;;;;;;;96.03;42.85;;;;;;;2.10;76.25;97364.63;5034812;28;20397;-66
2021/12/05 15:40:36;;;;;;;95.50;41.05;;;;;;;2.15;76.90;97366.56;5039861;28;20057;-65
2021/12/05 15:43:11;;;;;;;76.28;34.22;;;;;;;2.19;76.65;97362.22;5033891;28;20025;-65
2021/12/05 15:45:39;;;;;;;81.63;37.65;;;;;;;2.24;76.36;97359.53;5033267;28;20028;-65
2021/12/05 15:48:05;;;;;;;80.82;36.25;;;;;;;2.31;77.29;97361.97;5033970;28;20029;-65
2021/12/05 15:50:34;;;;;;;90.38;38.25;;;;;;;2.35;76.67;97363.84;5035554;28;20048;-65
2021/12/05 15:53:05;;;;;;;71.13;34.17;;;;;;;2.43;77.18;97369.81;5037505;28;20017;-65
2021/12/05 15:55:32;;;;;;;;;;;;;;;2.44;77.14;97374.97;5030923;28;20033;-64
2021/12/05 15:58:13;;;;;;;66.70;32.17;;;;;;;2.38;76.35;97371.44;5034157;28;20127;-65
2021/12/05 16:00:45;;;;;;;91.47;41.67;;;;;;;2.28;75.96;97374.13;5032185;28;20155;-65
2021/12/05 16:03:16;;;;;;;88.85;41.13;;;;;;;2.26;76.02;97373.56;5057381;28;20025;-65
2021/12/05 16:05:43;;;;;;;90.65;41.45;;;;;;;2.25;76.50;97377.38;5035246;28;20032;-66
2021/12/05 16:08:15;;;;;;;81.90;37.75;;;;;;;2.20;75.80;97380.88;5036282;28;20053;-66
2021/12/05 16:10:45;;;;;;;78.93;39.05;;;;;;;2.18;75.79;97398.47;5034555;28;20080;-66
2021/12/05 16:13:14;;;;;;;;;;;;;;;2.17;76.15;97403.06;5033086;28;20064;-66
2021/12/05 16:15:42;;;;;;;74.65;35.72;;;;;;;2.15;75.84;97404.41;5034943;28;19919;-66
2021/12/05 16:18:08;;;;;;;88.75;40.70;;;;;;;2.21;75.88;97406.06;5034176;28;20031;-66
2021/12/05 16:20:40;;;;;;;77.07;36.13;;;;;;;2.23;75.98;97406.59;5037489;28;20025;-65
2021/12/05 16:23:15;;;;;;;90.15;41.05;;;;;;;2.30;76.78;97406.34;5035420;28;20079;-65
2021/12/05 16:25:49;;;;;;;87.60;40.53;;;;;;;2.34;76.81;97405.53;5035639;28;20112;-66
2021/12/05 16:28:21;;;;;;;82.97;39.88;;;;;;;2.31;75.93;97407.97;5036040;28;20088;-66
2021/12/05 16:30:48;;;;;;;67.38;33.47;;;;;;;2.31;76.66;97418.78;5037749;28;20143;-66
2021/12/05 16:33:16;;;;;;;66.80;33.20;;;;;;;2.28;76.63;97422.03;5037325;28;20140;-66
2021/12/05 16:35:48;;;;;;;66.57;32.88;;;;;;;2.19;75.84;97427.16;5036625;28;20037;-66
2021/12/05 16:38:33;;;;;;;66.35;33.25;;;;;;;2.17;76.06;97437.44;5033789;28;20171;-65
2021/12/05 16:41:16;;;;;;;62.80;31.33;;;;;;;2.13;76.20;97434.44;5032924;28;20025;-66
2021/12/05 16:43:59;;;;;;;64.25;31.88;;;;;;;2.14;76.65;97435.25;5036927;28;20075;-66
2021/12/05 16:46:30;;;;;;;54.83;29.08;;;;;;;2.13;75.91;97430.91;5034950;28;20033;-65
2021/12/05 16:48:59;;;;;;;71.20;29.85;;;;;;;2.14;76.12;97432.53;5039283;28;20120;-66
2021/12/05 16:51:34;;;;;;;71.25;32.28;;;;;;;2.07;76.48;97427.38;5038939;28;20041;-66
2021/12/05 16:54:13;;;;;;;84.97;35.00;;;;;;;1.96;75.77;97431.16;5040281;28;20029;-66
2021/12/05 16:56:49;;;;;;;93.63;39.35;;;;;;;1.86;76.38;97434.59;5038960;28;20029;-66
2021/12/05 16:59:22;;;;;;;138.35;47.05;;;;;;;1.77;75.72;97431.59;5036048;28;20064;-66
2021/12/05 17:02:27;;;;;;;128.40;43.15;;;;;;;1.73;75.84;97427.78;5038987;28;20029;-65
2021/12/05 17:05:15;;;;;;;99.55;36.53;;;;;;;1.74;76.37;97432.13;5038464;28;20044;-66
2021/12/05 17:10:49;;;;;;;102.65;37.92;;;;;;;1.69;76.55;97437.50;5038483;28;20494;-66
2021/12/05 17:13:20;;;;;;;70.25;30.27;;;;;;;1.64;75.84;97431.00;5037161;28;20037;-66
2021/12/05 17:16:01;;;;;;;68.25;30.63;;;;;;;1.60;75.97;97423.69;5038455;28;20059;-66
2021/12/05 17:18:36;;;;;;;67.15;30.33;;;;;;;1.57;76.11;97433.16;5038349;28;20029;-66